createdAt,value
2019-02-24T00:00:46.729Z,33.27
2019-02-24T00:03:16.214Z,39.63
2019-02-24T00:05:45.705Z,36.30
2019-02-24T00:08:15.137Z,38.60
2019-02-24T00:10:44.501Z,35.63
2019-02-24T00:13:13.820Z,35.67
2019-02-24T00:15:43.118Z,33.13
2019-02-24T00:18:12.585Z,33.17
2019-02-24T00:20:41.998Z,34.53
2019-02-24T00:23:11.379Z,38.47
2019-02-24T00:25:40.817Z,33.13
2019-02-24T00:28:10.185Z,28.30
2019-02-24T00:30:39.571Z,36.00
2019-02-24T00:33:08.922Z,39.17
2019-02-24T00:35:38.242Z,36.03
2019-02-24T00:38:07.490Z,33.47
2019-02-24T00:40:36.894Z,30.97
2019-02-24T00:43:06.247Z,38.30
2019-02-24T00:45:35.590Z,39.57
2019-02-24T00:48:04.939Z,26.83
2019-02-24T00:50:34.298Z,39.10
2019-02-24T00:53:03.641Z,41.37
2019-02-24T00:55:33.010Z,43.20
2019-02-24T00:58:02.389Z,38.27
2019-02-24T01:00:31.757Z,39.77
2019-02-24T01:03:01.184Z,40.80
2019-02-24T01:05:30.578Z,40.00
2019-02-24T01:08:00.006Z,35.37
2019-02-24T01:10:29.517Z,37.10
2019-02-24T01:12:58.860Z,36.93
2019-02-24T01:15:28.275Z,30.33
2019-02-24T01:17:57.706Z,44.37
2019-02-24T01:20:27.083Z,31.33
2019-02-24T01:22:56.478Z,41.53
2019-02-24T01:25:25.960Z,38.57
2019-02-24T01:27:55.262Z,42.97
2019-02-24T01:30:24.640Z,43.00
2019-02-24T01:32:53.958Z,32.23
2019-02-24T01:35:23.323Z,44.47
2019-02-24T01:37:52.670Z,31.97
2019-02-24T01:40:22.034Z,38.87
2019-02-24T01:42:51.370Z,33.93
2019-02-24T01:45:20.743Z,28.07
2019-02-24T01:47:50.090Z,33.93
2019-02-24T01:50:19.575Z,34.90
2019-02-24T01:52:48.990Z,47.40
2019-02-24T01:55:18.310Z,30.57
2019-02-24T01:57:47.671Z,44.13
2019-02-24T02:00:17.119Z,36.20
2019-02-24T02:02:46.549Z,46.00
2019-02-24T02:05:15.994Z,32.83
2019-02-24T02:07:45.498Z,40.67
2019-02-24T02:10:14.774Z,24.23
2019-02-24T02:12:44.186Z,42.07
2019-02-24T02:15:13.717Z,36.10
2019-02-24T02:17:43.101Z,38.80
2019-02-24T02:20:12.454Z,35.90
2019-02-24T02:22:41.792Z,46.13
2019-02-24T02:25:11.197Z,40.77
2019-02-24T02:27:40.642Z,46.27
2019-02-24T02:30:10.900Z,42.80
2019-02-24T02:32:40.257Z,44.23
2019-02-24T02:35:09.677Z,36.20
2019-02-24T02:37:39.028Z,42.37
2019-02-24T02:40:08.509Z,39.30
2019-02-24T02:42:37.894Z,41.77
2019-02-24T02:45:07.871Z,41.83
2019-02-24T02:47:37.197Z,40.67
2019-02-24T02:50:06.597Z,26.60
2019-02-24T02:52:36.032Z,38.37
2019-02-24T02:55:05.734Z,29.10
2019-02-24T02:57:35.112Z,33.77
2019-02-24T03:00:07.554Z,44.17
2019-02-24T03:02:36.967Z,45.27
2019-02-24T03:05:06.462Z,25.60
2019-02-24T03:07:49.174Z,36.03
2019-02-24T03:10:18.527Z,39.20
2019-02-24T03:12:47.910Z,42.40
2019-02-24T03:15:17.295Z,24.63
2019-02-24T03:17:46.746Z,32.43
2019-02-24T03:20:16.054Z,27.83
2019-02-24T03:22:45.354Z,36.43
2019-02-24T03:25:14.703Z,35.73
2019-02-24T03:27:44.156Z,24.73
2019-02-24T03:30:13.536Z,19.07
2019-02-24T03:32:42.978Z,30.27
2019-02-24T03:35:12.319Z,35.80
2019-02-24T03:37:41.661Z,36.40
2019-02-24T03:40:10.974Z,31.47
2019-02-24T03:42:40.266Z,17.23
2019-02-24T03:45:09.898Z,27.10
2019-02-24T03:47:39.268Z,32.97
2019-02-24T03:50:08.611Z,40.17
2019-02-24T03:52:38.127Z,40.60
2019-02-24T03:55:07.476Z,36.57
2019-02-24T03:57:36.754Z,30.73
2019-02-24T04:00:06.789Z,46.53
2019-02-24T04:02:36.125Z,36.33
2019-02-24T04:05:06.233Z,31.93
2019-02-24T04:07:35.570Z,35.40
2019-02-24T04:10:05.346Z,34.27
2019-02-24T04:12:34.795Z,18.23
2019-02-24T04:15:04.579Z,35.53
2019-02-24T04:17:33.966Z,19.27
2019-02-24T04:20:03.700Z,39.63
2019-02-24T04:22:33.153Z,39.70
2019-02-24T04:25:02.486Z,22.13
2019-02-24T04:27:31.887Z,29.87
2019-02-24T04:30:01.487Z,33.77
2019-02-24T04:32:30.857Z,38.90
2019-02-24T04:35:00.298Z,20.57
2019-02-24T04:37:29.776Z,43.80
2019-02-24T04:39:59.124Z,47.43
2019-02-24T04:42:28.465Z,15.27
2019-02-24T04:44:57.843Z,44.40
2019-02-24T04:47:27.175Z,36.50
2019-02-24T04:49:56.596Z,24.13
2019-02-24T04:52:25.934Z,38.57
2019-02-24T04:54:55.291Z,34.40
2019-02-24T04:57:24.606Z,31.30
2019-02-24T04:59:53.970Z,45.70
2019-02-24T05:02:23.335Z,45.23
2019-02-24T05:04:52.819Z,26.83
2019-02-24T05:07:22.258Z,39.03
2019-02-24T05:09:51.687Z,44.17
2019-02-24T05:12:21.053Z,42.70
2019-02-24T05:14:50.377Z,34.30
2019-02-24T05:17:19.761Z,37.47
2019-02-24T05:19:49.196Z,38.60
2019-02-24T05:22:18.712Z,48.03
2019-02-24T05:24:48.161Z,48.90
2019-02-24T05:27:17.633Z,46.93
2019-02-24T05:29:47.048Z,39.83
2019-02-24T05:32:16.733Z,41.33
2019-02-24T05:34:46.112Z,24.20
2019-02-24T05:37:15.654Z,34.03
2019-02-24T05:39:45.226Z,35.63
2019-02-24T05:42:14.525Z,41.17
2019-02-24T05:44:43.854Z,36.80
2019-02-24T05:47:13.325Z,41.13
2019-02-24T05:49:42.798Z,30.17
2019-02-24T05:52:12.230Z,37.57
2019-02-24T05:54:41.589Z,26.70
2019-02-24T05:57:10.934Z,49.70
2019-02-24T05:59:40.404Z,38.70
2019-02-24T06:02:11.338Z,37.43
2019-02-24T06:04:41.348Z,18.73
2019-02-24T06:07:11.655Z,38.20
2019-02-24T06:09:41.054Z,35.10
2019-02-24T06:12:10.544Z,39.60
2019-02-24T06:14:39.923Z,39.50
2019-02-24T06:17:09.226Z,34.57
2019-02-24T06:19:38.518Z,38.67
2019-02-24T06:22:07.853Z,39.73
2019-02-24T06:24:37.270Z,33.30
2019-02-24T06:27:06.682Z,41.40
2019-02-24T06:29:36.022Z,32.87
2019-02-24T06:32:05.510Z,38.87
2019-02-24T06:34:34.985Z,44.03
2019-02-24T06:37:04.331Z,44.70
2019-02-24T06:39:33.778Z,43.67
2019-02-24T06:42:03.170Z,37.77
2019-02-24T06:44:32.596Z,42.40
2019-02-24T06:47:02.083Z,47.37
2019-02-24T06:49:31.493Z,29.80
2019-02-24T06:52:00.889Z,43.07
2019-02-24T06:54:30.312Z,15.77
2019-02-24T06:56:59.660Z,41.77
2019-02-24T06:59:28.979Z,39.60
2019-02-24T07:01:58.366Z,33.07
2019-02-24T07:04:27.702Z,30.13
2019-02-24T07:06:57.282Z,47.40
2019-02-24T07:09:26.696Z,40.20
2019-02-24T07:11:56.054Z,39.60
2019-02-24T07:14:25.395Z,40.07
2019-02-24T07:16:54.983Z,43.73
2019-02-24T07:19:24.262Z,25.30
2019-02-24T07:21:53.647Z,41.20
2019-02-24T07:24:22.961Z,37.60
2019-02-24T07:26:52.286Z,24.43
2019-02-24T07:29:21.714Z,39.80
2019-02-24T07:31:51.132Z,48.33
2019-02-24T07:34:20.602Z,13.63
2019-02-24T07:36:50.016Z,13.87
2019-02-24T07:39:19.446Z,40.07
2019-02-24T07:41:48.782Z,37.80
2019-02-24T07:44:18.170Z,24.13
2019-02-24T07:46:47.635Z,37.37
2019-02-24T07:49:16.986Z,27.27
2019-02-24T07:51:46.468Z,38.83
2019-02-24T07:54:15.786Z,20.00
2019-02-24T07:56:45.163Z,24.60
2019-02-24T07:59:15.554Z,38.63
2019-02-24T08:01:45.014Z,32.20
2019-02-24T08:04:14.339Z,40.80
2019-02-24T08:06:44.614Z,36.40
2019-02-24T08:09:14.040Z,33.93
2019-02-24T08:11:43.519Z,37.13
2019-02-24T08:14:12.843Z,28.67
2019-02-24T08:16:42.393Z,29.57
2019-02-24T08:19:11.944Z,19.07
2019-02-24T08:21:41.605Z,34.13
2019-02-24T08:24:11.058Z,28.77
2019-02-24T08:26:40.332Z,29.10
2019-02-24T08:29:09.774Z,22.80
2019-02-24T08:31:39.174Z,29.83
2019-02-24T08:34:08.544Z,29.17
2019-02-24T08:36:38.031Z,37.23
2019-02-24T08:39:07.595Z,43.13
2019-02-24T08:41:36.995Z,40.93
2019-02-24T08:44:06.590Z,40.53
2019-02-24T08:46:35.984Z,39.07
2019-02-24T08:49:05.438Z,34.70
2019-02-24T08:51:35.047Z,34.43
2019-02-24T08:54:04.418Z,36.33
2019-02-24T08:56:33.838Z,40.37
2019-02-24T08:59:03.403Z,41.20
2019-02-24T09:01:32.788Z,40.40
2019-02-24T09:04:02.198Z,44.67
2019-02-24T09:06:31.600Z,30.10
2019-02-24T09:09:00.974Z,20.93
2019-02-24T09:11:30.395Z,44.07
2019-02-24T09:13:59.810Z,34.07
2019-02-24T09:16:29.198Z,36.13
2019-02-24T09:18:58.584Z,40.73
2019-02-24T09:21:28.113Z,37.40
2019-02-24T09:23:57.561Z,39.70
2019-02-24T09:26:27.003Z,41.77
2019-02-24T09:28:56.524Z,37.00
2019-02-24T09:31:26.287Z,38.83
2019-02-24T09:33:55.686Z,30.17
2019-02-24T09:36:25.097Z,45.00
2019-02-24T09:38:54.526Z,31.70
2019-02-24T09:41:23.956Z,27.93
2019-02-24T09:43:53.459Z,25.43
2019-02-24T09:46:22.841Z,39.60
2019-02-24T09:48:52.270Z,40.40
2019-02-24T09:51:21.771Z,36.17
2019-02-24T09:53:51.271Z,43.20
2019-02-24T09:56:20.673Z,32.77
2019-02-24T09:58:50.100Z,30.60
2019-02-24T10:01:19.530Z,34.70
2019-02-24T10:03:48.910Z,37.83
2019-02-24T10:06:18.333Z,37.73
2019-02-24T10:08:47.733Z,38.37
2019-02-24T10:11:17.161Z,33.63
2019-02-24T10:13:46.560Z,37.43
2019-02-24T10:16:15.906Z,33.40
2019-02-24T10:18:45.245Z,38.53
2019-02-24T10:21:14.639Z,43.50
2019-02-24T10:23:43.979Z,39.43
2019-02-24T10:26:13.325Z,32.67
2019-02-24T10:28:42.727Z,15.07
2019-02-24T10:31:19.597Z,26.57
2019-02-24T10:33:43.238Z,36.57
2019-02-24T10:36:12.657Z,40.77
2019-02-24T10:38:41.974Z,37.77
2019-02-24T10:41:11.337Z,35.93
2019-02-24T10:43:40.926Z,41.23
2019-02-24T10:46:11.395Z,45.27
2019-02-24T10:48:40.943Z,38.17
2019-02-24T10:51:10.440Z,42.17
2019-02-24T10:53:39.791Z,43.87
2019-02-24T10:56:09.409Z,42.00
2019-02-24T10:58:38.761Z,37.23
2019-02-24T11:01:08.374Z,42.50
2019-02-24T11:03:37.779Z,42.83
2019-02-24T11:06:07.029Z,44.50
2019-02-24T11:08:36.428Z,45.87
2019-02-24T11:11:05.853Z,51.27
2019-02-24T11:13:36.330Z,48.83
2019-02-24T11:16:05.830Z,44.37
2019-02-24T11:18:35.130Z,40.97
2019-02-24T11:21:04.471Z,38.73
2019-02-24T11:23:33.831Z,41.67
2019-02-24T11:26:03.182Z,41.77
2019-02-24T11:28:32.529Z,34.87
2019-02-24T11:31:02.063Z,44.00
2019-02-24T11:33:31.438Z,51.77
2019-02-24T11:36:00.743Z,43.30
2019-02-24T11:38:30.173Z,46.90
2019-02-24T11:40:59.597Z,44.63
2019-02-24T11:43:29.058Z,39.80
2019-02-24T11:45:58.578Z,47.93
2019-02-24T11:48:27.949Z,53.40
2019-02-24T11:50:57.207Z,39.27
2019-02-24T11:53:29.568Z,40.00
2019-02-24T11:55:58.922Z,37.40
2019-02-24T11:58:28.286Z,41.87
2019-02-24T12:00:57.789Z,51.53
2019-02-24T12:03:27.126Z,48.43
2019-02-24T12:05:56.429Z,43.43
2019-02-24T12:08:25.862Z,44.70
2019-02-24T12:10:55.253Z,42.03
2019-02-24T12:13:24.756Z,43.53
2019-02-24T12:15:54.903Z,52.33
2019-02-24T12:18:24.351Z,40.77
2019-02-24T12:20:53.840Z,36.97
2019-02-24T12:23:23.170Z,40.00
2019-02-24T12:25:52.546Z,48.73
2019-02-24T12:28:21.942Z,45.57
2019-02-24T12:30:51.337Z,48.77
2019-02-24T12:33:20.800Z,40.47
2019-02-24T12:35:50.219Z,42.73
2019-02-24T12:38:19.812Z,35.33
2019-02-24T12:40:49.195Z,36.10
2019-02-24T12:43:18.738Z,49.53
2019-02-24T12:45:48.126Z,51.70
2019-02-24T12:48:17.518Z,46.97
2019-02-24T12:50:46.934Z,36.60
2019-02-24T12:53:16.293Z,36.47
2019-02-24T12:55:45.715Z,39.60
2019-02-24T12:58:15.202Z,38.37
2019-02-24T13:00:44.658Z,40.67
2019-02-24T13:03:14.001Z,42.23
2019-02-24T13:05:43.352Z,40.50
2019-02-24T13:08:12.802Z,48.70
2019-02-24T13:10:42.153Z,42.33
2019-02-24T13:13:11.518Z,45.03
2019-02-24T13:15:40.995Z,52.10
2019-02-24T13:18:10.402Z,29.50
2019-02-24T13:20:39.664Z,18.27
2019-02-24T13:23:09.042Z,28.97
2019-02-24T13:25:38.403Z,22.17
2019-02-24T13:28:07.766Z,44.17
2019-02-24T13:30:37.144Z,29.27
2019-02-24T13:33:07.516Z,38.83
2019-02-24T13:35:37.034Z,35.63
2019-02-24T13:38:06.406Z,34.77
2019-02-24T13:40:35.629Z,31.80
2019-02-24T13:43:05.092Z,44.57
2019-02-24T13:45:34.522Z,41.80
2019-02-24T13:48:03.837Z,35.73
2019-02-24T13:50:33.184Z,42.03
2019-02-24T13:53:02.609Z,39.97
2019-02-24T13:55:31.961Z,35.73
2019-02-24T13:58:01.341Z,39.60
2019-02-24T14:00:30.713Z,44.37
2019-02-24T14:03:00.059Z,51.20
2019-02-24T14:05:29.397Z,41.60
2019-02-24T14:07:58.817Z,52.10
2019-02-24T14:10:28.145Z,53.13
2019-02-24T14:12:58.959Z,46.50
2019-02-24T14:15:28.517Z,49.80
2019-02-24T14:17:57.971Z,47.37
2019-02-24T14:20:27.374Z,38.27
2019-02-24T14:22:56.766Z,53.83
2019-02-24T14:25:26.119Z,49.37
2019-02-24T14:27:55.479Z,47.87
2019-02-24T14:30:24.818Z,52.97
2019-02-24T14:32:54.403Z,45.63
2019-02-24T14:35:23.901Z,56.50
2019-02-24T14:37:53.307Z,47.03
2019-02-24T14:40:22.734Z,49.93
2019-02-24T14:42:52.234Z,60.13
2019-02-24T14:45:21.715Z,38.13
2019-02-24T14:47:51.138Z,58.60
2019-02-24T14:50:22.383Z,56.23
2019-02-24T14:52:51.837Z,66.73
2019-02-24T14:55:21.405Z,52.53
2019-02-24T14:57:50.893Z,49.80
2019-02-24T15:00:20.366Z,44.80
2019-02-24T15:02:49.826Z,42.10
2019-02-24T15:05:19.287Z,46.17
2019-02-24T15:07:48.782Z,50.53
2019-02-24T15:10:18.134Z,45.17
2019-02-24T15:12:47.590Z,46.23
2019-02-24T15:15:18.627Z,52.37
2019-02-24T15:17:48.023Z,54.70
2019-02-24T15:20:18.777Z,48.77
2019-02-24T15:22:48.192Z,54.33
2019-02-24T15:25:18.013Z,53.47
2019-02-24T15:27:47.456Z,60.10
2019-02-24T15:30:25.902Z,49.30
2019-02-24T15:32:55.301Z,61.83
2019-02-24T15:35:24.684Z,51.00
2019-02-24T15:37:54.028Z,70.77
2019-02-24T15:40:23.396Z,76.67
2019-02-24T15:42:52.910Z,48.03
2019-02-24T15:45:22.257Z,46.67
2019-02-24T15:47:51.618Z,54.80
2019-02-24T15:50:21.387Z,52.97
2019-02-24T15:52:50.756Z,60.47
2019-02-24T15:55:20.359Z,56.13
2019-02-24T15:57:49.733Z,55.40
2019-02-24T16:00:19.094Z,51.07
2019-02-24T16:02:48.446Z,42.50
2019-02-24T16:05:17.825Z,41.53
2019-02-24T16:07:47.349Z,47.87
2019-02-24T16:10:17.002Z,59.27
2019-02-24T16:12:46.438Z,64.20
2019-02-24T16:15:18.741Z,62.23
2019-02-24T16:17:48.214Z,45.37
2019-02-24T16:20:20.147Z,49.20
2019-02-24T16:22:49.766Z,55.90
2019-02-24T16:25:19.122Z,63.50
2019-02-24T16:27:48.551Z,55.00
2019-02-24T16:30:17.934Z,56.00
2019-02-24T16:32:47.448Z,63.93
2019-02-24T16:35:16.936Z,65.67
2019-02-24T16:37:46.528Z,78.50
2019-02-24T16:40:17.631Z,88.27
2019-02-24T16:42:47.362Z,92.47
2019-02-24T16:45:16.771Z,76.13
2019-02-24T16:47:46.397Z,88.23
2019-02-24T16:50:16.499Z,90.27
2019-02-24T16:52:45.877Z,79.57
2019-02-24T16:55:15.698Z,66.53
2019-02-24T16:57:44.997Z,66.80
2019-02-24T17:00:19.095Z,68.87
2019-02-24T17:02:48.418Z,56.40
2019-02-24T17:05:17.738Z,57.60
2019-02-24T17:07:49.108Z,59.07
2019-02-24T17:10:19.074Z,63.83
2019-02-24T17:12:48.457Z,73.37
2019-02-24T17:15:17.892Z,74.37
2019-02-24T17:17:47.326Z,68.23
2019-02-24T17:20:17.785Z,63.90
2019-02-24T17:22:47.548Z,73.50
2019-02-24T17:25:16.945Z,75.10
2019-02-24T17:27:46.296Z,79.67
2019-02-24T17:30:15.946Z,77.17
2019-02-24T17:32:45.641Z,79.47
2019-02-24T17:35:15.062Z,77.47
2019-02-24T17:37:44.335Z,74.03
2019-02-24T17:40:19.231Z,89.17
2019-02-24T17:42:48.357Z,92.73
2019-02-24T17:45:17.744Z,98.37
2019-02-24T17:47:47.130Z,82.43
2019-02-24T17:50:16.594Z,86.50
2019-02-24T17:52:46.044Z,65.37
2019-02-24T17:55:15.451Z,73.70
2019-02-24T17:57:44.966Z,71.87
2019-02-24T18:00:21.995Z,68.07
2019-02-24T18:02:51.494Z,60.97
2019-02-24T18:05:20.870Z,61.43
2019-02-24T18:07:50.181Z,71.23
2019-02-24T18:10:19.650Z,60.73
2019-02-24T18:12:49.198Z,77.03
2019-02-24T18:15:18.566Z,59.33
2019-02-24T18:17:47.961Z,69.80
2019-02-24T18:20:17.460Z,46.70
2019-02-24T18:22:47.027Z,55.83
2019-02-24T18:25:16.448Z,53.77
2019-02-24T18:27:47.115Z,54.60
2019-02-24T18:30:19.065Z,63.73
2019-02-24T18:32:48.496Z,48.67
2019-02-24T18:35:17.819Z,47.30
2019-02-24T18:37:47.286Z,55.13
2019-02-24T18:40:16.942Z,49.30
2019-02-24T18:42:46.326Z,48.70
2019-02-24T18:45:16.028Z,46.17
2019-02-24T18:47:45.458Z,41.57
2019-02-24T18:50:15.076Z,62.80
2019-02-24T18:52:44.552Z,61.67
2019-02-24T18:55:14.051Z,64.83
2019-02-24T18:57:43.444Z,55.70
2019-02-24T19:00:15.596Z,61.10
2019-02-24T19:02:45.070Z,59.67
2019-02-24T19:05:14.625Z,57.50
2019-02-24T19:07:44.070Z,62.70
2019-02-24T19:10:15.265Z,56.67
2019-02-24T19:12:44.650Z,60.00
2019-02-24T19:15:16.255Z,61.00
2019-02-24T19:17:45.696Z,72.33
2019-02-24T19:20:16.782Z,65.67
2019-02-24T19:22:46.584Z,62.27
2019-02-24T19:25:16.133Z,58.20
2019-02-24T19:27:45.782Z,64.77
2019-02-24T19:30:15.902Z,62.27
2019-02-24T19:32:45.349Z,71.77
2019-02-24T19:35:15.486Z,63.07
2019-02-24T19:37:45.239Z,65.83
2019-02-24T19:40:16.066Z,70.77
2019-02-24T19:42:45.836Z,56.33
2019-02-24T19:45:16.377Z,55.10
2019-02-24T19:47:45.917Z,62.07
2019-02-24T19:50:16.465Z,57.60
2019-02-24T19:52:46.087Z,63.37
2019-02-24T19:55:15.641Z,50.90
2019-02-24T19:57:45.081Z,51.37
2019-02-24T20:00:19.999Z,61.67
2019-02-24T20:02:49.412Z,61.00
2019-02-24T20:05:19.909Z,63.50
2019-02-24T20:07:49.571Z,72.13
2019-02-24T20:10:20.390Z,63.77
2019-02-24T20:12:49.857Z,68.90
2019-02-24T20:15:19.234Z,64.73
2019-02-24T20:17:48.742Z,74.83
2019-02-24T20:20:18.240Z,75.40
2019-02-24T20:22:47.647Z,73.47
2019-02-24T20:25:17.279Z,77.00
2019-02-24T20:27:46.632Z,63.67
2019-02-24T20:30:21.403Z,60.20
2019-02-24T20:32:53.085Z,65.87
2019-02-24T20:35:22.614Z,72.33
2019-02-24T20:37:52.150Z,69.93
2019-02-24T20:40:21.615Z,69.77
2019-02-24T20:42:51.077Z,65.70
2019-02-24T20:45:20.461Z,70.30
2019-02-24T20:47:50.217Z,67.40
2019-02-24T20:50:20.310Z,68.53
2019-02-24T20:52:49.687Z,75.20
2019-02-24T20:55:18.963Z,68.57
2019-02-24T20:57:48.293Z,73.27
2019-02-24T21:00:23.041Z,75.20
2019-02-24T21:02:52.312Z,68.90
2019-02-24T21:05:22.989Z,75.67
2019-02-24T21:07:52.366Z,77.00
2019-02-24T21:10:21.653Z,78.53
2019-02-24T21:12:51.042Z,66.77
2019-02-24T21:15:20.645Z,75.13
2019-02-24T21:17:49.972Z,57.43
2019-02-24T21:20:21.429Z,69.83
2019-02-24T21:22:50.851Z,58.80
2019-02-24T21:25:20.289Z,67.03
2019-02-24T21:27:49.701Z,85.70
2019-02-24T21:30:19.545Z,74.77
2019-02-24T21:32:49.044Z,77.10
2019-02-24T21:35:18.625Z,71.23
2019-02-24T21:37:47.954Z,75.73
2019-02-24T21:40:17.631Z,76.27
2019-02-24T21:42:46.965Z,73.07
2019-02-24T21:45:18.052Z,80.27
2019-02-24T21:47:47.404Z,71.50
2019-02-24T21:50:17.197Z,71.03
2019-02-24T21:52:46.623Z,75.27
2019-02-24T21:55:15.915Z,81.40
2019-02-24T21:57:45.473Z,82.97
2019-02-24T22:00:17.952Z,76.13
2019-02-24T22:02:47.297Z,78.83
2019-02-24T22:05:16.543Z,75.80
2019-02-24T22:07:46.165Z,75.07
2019-02-24T22:10:16.569Z,75.40
2019-02-24T22:12:46.016Z,67.67
2019-02-24T22:15:16.911Z,75.93
2019-02-24T22:17:46.275Z,80.33
2019-02-24T22:20:16.663Z,81.23
2019-02-24T22:22:46.120Z,76.60
2019-02-24T22:25:15.895Z,78.13
2019-02-24T22:27:45.395Z,71.30
2019-02-24T22:30:16.032Z,79.60
2019-02-24T22:32:45.421Z,76.13
2019-02-24T22:35:15.185Z,80.07
2019-02-24T22:37:44.591Z,76.07
2019-02-24T22:40:16.410Z,81.13
2019-02-24T22:42:46.294Z,90.93
2019-02-24T22:45:16.952Z,84.60
2019-02-24T22:47:46.716Z,84.17
2019-02-24T22:50:16.441Z,90.57
2019-02-24T22:52:46.180Z,80.90
2019-02-24T22:55:16.096Z,88.33
2019-02-24T22:57:45.497Z,79.70
2019-02-24T23:00:54.811Z,86.87
2019-02-24T23:03:25.869Z,86.33
2019-02-24T23:05:58.035Z,89.03
2019-02-24T23:08:27.452Z,93.10
2019-02-24T23:10:56.769Z,91.20
2019-02-24T23:13:26.196Z,110.23
2019-02-24T23:15:55.547Z,98.93
2019-02-24T23:18:24.932Z,83.57
2019-02-24T23:20:54.247Z,97.03
2019-02-24T23:23:23.552Z,114.40
2019-02-24T23:25:53.147Z,92.43
2019-02-24T23:28:22.503Z,90.97
2019-02-24T23:30:51.887Z,76.20
2019-02-24T23:33:21.312Z,84.17
2019-02-24T23:35:50.894Z,82.33
2019-02-24T23:38:20.210Z,75.80
2019-02-24T23:40:49.586Z,92.80
2019-02-24T23:43:19.014Z,96.57
2019-02-24T23:45:48.352Z,92.93
2019-02-24T23:48:17.670Z,77.63
2019-02-24T23:50:47.030Z,87.00
2019-02-24T23:53:16.494Z,83.80
2019-02-24T23:55:45.872Z,74.47
2019-02-24T23:58:15.162Z,68.67
